Rechercher aéroport 
image banner adimage banner adimage banner ad
image banner ad

3O8 - Harris Ranch

Situé à Coalinga, United States

ICAO - 3O8, IATA -

Données fournies par Airmate  

Information générale

Coordonnées: N36°14'53" W120°14'18"
Élévation : 470 feet MSL.
Variation magnétique : 15° East
Voir autres Aéroports à California

Données opérationnelles

Special qualification required
Heure actuelle UTC:
Heure actuelle locale:
Météo à : KNLC - Lemoore Nas (Reeves Fld) ( 27 km )
METAR: KNLC 251356Z AUTO 30005KT 10SM CLR 21/07 A2989 RMK AO2 SLP120 T02060067
TAF: TAF KNLC 2423/2523 VRB06KT 9999 SCT200 QNH2978INS TEMPO 2423/2503 01006G16KT T20/2513Z T38/2523Z FS30171
Voir NOTAMs / SUP AIP / TFR affectant cet aéroport [VIEW]
Fréquences de communication: [VIEW]

Pistes:

Identifiant RWYQFULongueur (ft)Largeur (ft)SurfaceLDA (ft)
14282030ASPH
32282030ASPH

Coordonnées de l'aéroport

Adresse: Coalinga United States

Vue satellite de 3O8